Time;durP1;ratioP1;P1;durP2;ratioP2;P2;SDS_P1;SDS_P2;PMS_P1;PMS_P2;Temp;Humidity;BMP_temperature;BMP_pressure;BME280_temperature;BME280_humidity;BME280_pressure;Samples;Min_cycle;Max_cycle;Signal;HPM_P1;HPM_P2
2023/03/24 00:00:12;;;;;;;1.65;0.90;;;23.80;49.00;;;;;;4981233;28;19976;-62
2023/03/24 00:02:41;;;;;;;1.67;1.00;;;23.80;49.00;;;;;;4984157;28;20038;-62
2023/03/24 00:05:11;;;;;;;2.40;1.23;;;23.80;49.00;;;;;;4984981;28;20026;-62
2023/03/24 00:07:38;;;;;;;1.65;0.90;;;23.80;49.00;;;;;;4982656;28;20073;-62
2023/03/24 00:10:11;;;;;;;1.63;0.93;;;23.70;48.90;;;;;;4981461;28;20034;-61
2023/03/24 00:12:37;;;;;;;1.98;1.00;;;23.70;49.00;;;;;;4983482;28;20517;-62
2023/03/24 00:15:06;;;;;;;1.60;0.90;;;23.70;49.00;;;;;;4981891;28;20023;-62
2023/03/24 00:17:34;;;;;;;1.43;0.90;;;23.70;49.00;;;;;;4981520;28;20027;-62
2023/03/24 00:20:06;;;;;;;1.83;1.10;;;23.70;49.00;;;;;;4985151;28;20265;-61
2023/03/24 00:22:32;;;;;;;1.70;1.00;;;23.70;49.10;;;;;;4983053;28;20042;-62
2023/03/24 00:24:57;;;;;;;1.30;0.85;;;23.70;49.10;;;;;;4981041;28;20108;-62
2023/03/24 00:27:23;;;;;;;1.13;0.82;;;23.70;49.00;;;;;;4981165;28;20043;-62
2023/03/24 00:29:48;;;;;;;1.95;1.00;;;23.70;49.10;;;;;;4979574;28;20054;-62
2023/03/24 00:32:14;;;;;;;1.55;0.90;;;23.70;49.10;;;;;;4982641;28;20022;-62
2023/03/24 00:34:42;;;;;;;1.15;0.80;;;23.70;49.10;;;;;;4982743;28;20027;-62
2023/03/24 00:37:08;;;;;;;1.52;1.00;;;23.60;49.10;;;;;;4984546;28;20418;-62
2023/03/24 00:39:34;;;;;;;1.38;0.80;;;23.70;49.60;;;;;;4986191;28;20061;-61
2023/03/24 00:42:02;;;;;;;2.67;1.00;;;23.60;49.10;;;;;;4989319;28;20490;-61
2023/03/24 00:44:28;;;;;;;1.58;0.85;;;23.60;49.10;;;;;;4988404;28;20743;-62
2023/03/24 00:46:56;;;;;;;1.40;0.80;;;23.60;49.10;;;;;;4985392;28;20032;-61
2023/03/24 00:49:43;;;;;;;1.60;0.90;;;23.60;49.10;;;;;;4981875;28;20042;-62
2023/03/24 00:52:19;;;;;;;1.23;0.80;;;23.60;49.10;;;;;;4981878;28;20053;-63
2023/03/24 00:54:46;;;;;;;1.13;0.80;;;23.60;49.10;;;;;;4983488;28;20037;-62
2023/03/24 00:57:20;;;;;;;1.30;0.80;;;23.60;49.10;;;;;;4982177;28;20037;-61
2023/03/24 00:59:49;;;;;;;2.22;0.90;;;23.60;49.10;;;;;;4980867;28;20040;-62
2023/03/24 01:02:24;;;;;;;1.20;0.85;;;23.60;49.20;;;;;;4997101;28;20121;-62
2023/03/24 01:04:55;;;;;;;3.20;1.05;;;23.60;49.20;;;;;;4983434;28;20050;-61
2023/03/24 01:07:22;;;;;;;1.85;0.93;;;23.60;49.10;;;;;;4979005;28;20105;-62
2023/03/24 01:09:56;;;;;;;1.00;0.80;;;23.60;49.20;;;;;;4980121;28;20055;-62
2023/03/24 01:12:32;;;;;;;2.25;1.00;;;23.60;49.20;;;;;;4981601;28;20039;-62
2023/03/24 01:14:59;;;;;;;1.88;0.93;;;23.60;49.20;;;;;;4982889;28;20022;-62
2023/03/24 01:17:25;;;;;;;1.60;1.00;;;23.50;49.20;;;;;;4981279;28;20050;-62
2023/03/24 01:19:52;;;;;;;1.52;0.90;;;23.50;49.20;;;;;;4982231;28;20066;-63
2023/03/24 01:22:19;;;;;;;0.88;0.70;;;23.50;49.20;;;;;;4984845;28;20022;-63
2023/03/24 01:24:45;;;;;;;1.45;0.80;;;23.50;49.20;;;;;;4985123;28;20026;-63
2023/03/24 01:27:12;;;;;;;1.10;0.90;;;23.50;49.20;;;;;;4981845;28;20038;-62
2023/03/24 01:29:38;;;;;;;1.30;0.80;;;23.50;49.20;;;;;;4982566;28;20027;-63
2023/03/24 01:32:03;;;;;;;1.50;0.90;;;23.50;49.20;;;;;;4979568;28;20339;-63
2023/03/24 01:34:29;;;;;;;1.23;0.80;;;23.50;49.20;;;;;;4982649;28;20034;-63
2023/03/24 01:36:54;;;;;;;1.38;0.80;;;23.50;49.30;;;;;;4983529;28;20129;-63
2023/03/24 01:39:20;;;;;;;1.75;1.00;;;23.50;49.20;;;;;;4982922;28;20053;-63
2023/03/24 01:41:46;;;;;;;1.38;1.00;;;23.50;49.20;;;;;;4983502;28;20031;-63
2023/03/24 01:44:33;;;;;;;1.52;0.80;;;23.50;49.30;;;;;;4982829;28;20022;-62
2023/03/24 01:47:00;;;;;;;1.55;0.90;;;23.50;49.30;;;;;;4979986;28;20030;-61
2023/03/24 01:49:38;;;;;;;1.73;1.10;;;23.40;49.20;;;;;;4980914;28;20066;-62
2023/03/24 01:52:10;;;;;;;1.92;0.90;;;23.50;49.30;;;;;;4981174;28;20057;-62
2023/03/24 01:54:40;;;;;;;1.58;0.80;;;23.50;49.30;;;;;;4980506;28;20019;-62
2023/03/24 01:57:11;;;;;;;1.63;0.88;;;23.40;49.20;;;;;;4983057;28;20121;-63
2023/03/24 01:59:41;;;;;;;1.50;0.80;;;23.40;49.30;;;;;;4983471;28;20098;-61
2023/03/24 02:02:08;;;;;;;1.20;0.73;;;23.40;49.20;;;;;;4982357;28;20034;-61
2023/03/24 02:04:44;;;;;;;1.70;0.90;;;23.40;49.20;;;;;;4981467;28;20042;-62
2023/03/24 02:07:18;;;;;;;1.70;0.80;;;23.40;49.30;;;;;;4985665;28;20030;-62
2023/03/24 02:09:45;;;;;;;1.25;0.75;;;23.40;49.30;;;;;;4987004;28;20089;-61
2023/03/24 02:12:10;;;;;;;1.35;0.90;;;23.40;49.30;;;;;;4982932;28;20035;-61
2023/03/24 02:14:36;;;;;;;1.08;0.80;;;23.40;49.30;;;;;;4991245;28;20073;-61
2023/03/24 02:17:24;;;;;;;0.90;0.70;;;23.40;49.30;;;;;;4986498;28;20451;-62
2023/03/24 02:19:58;;;;;;;1.20;0.70;;;23.40;49.30;;;;;;4987494;28;20038;-62
2023/03/24 02:22:52;;;;;;;1.25;0.80;;;23.40;49.30;;;;;;4984628;28;20113;-62
2023/03/24 02:25:52;;;;;;;1.38;0.73;;;23.40;49.30;;;;;;4985069;28;20026;-61
2023/03/24 02:28:38;;;;;;;0.88;0.65;;;23.40;49.30;;;;;;4985557;28;20122;-62
2023/03/24 02:31:27;;;;;;;1.10;0.80;;;23.40;49.30;;;;;;4984819;28;20046;-62
2023/03/24 02:34:11;;;;;;;;;;;23.40;49.40;;;;;;4983896;28;20025;-62
2023/03/24 02:36:43;;;;;;;1.30;0.70;;;23.40;49.90;;;;;;4985527;28;19918;-62
2023/03/24 02:39:27;;;;;;;1.13;0.80;;;23.30;49.30;;;;;;4981296;28;20030;-62
2023/03/24 02:42:19;;;;;;;1.30;0.82;;;23.30;49.30;;;;;;4986587;28;20035;-63
2023/03/24 02:45:16;;;;;;;1.05;0.80;;;23.30;49.40;;;;;;4985747;28;20388;-62
2023/03/24 02:48:06;;;;;;;1.02;0.70;;;23.30;49.30;;;;;;4967930;28;20046;-61
2023/03/24 02:51:00;;;;;;;1.25;0.80;;;23.30;49.40;;;;;;4986329;28;20482;-62
2023/03/24 02:53:39;;;;;;;1.13;0.80;;;23.30;49.40;;;;;;4982850;28;20085;-62
2023/03/24 02:56:06;;;;;;;1.17;0.80;;;23.30;49.40;;;;;;4983224;28;20035;-62
2023/03/24 02:58:54;;;;;;;1.60;0.90;;;23.30;49.40;;;;;;4982487;28;20027;-62
2023/03/24 03:01:34;;;;;;;1.33;0.80;;;23.30;49.40;;;;;;4984303;28;20031;-62
2023/03/24 03:04:15;;;;;;;0.88;0.70;;;23.30;49.90;;;;;;4985393;28;20045;-61
2023/03/24 03:06:46;;;;;;;1.33;0.80;;;23.30;49.40;;;;;;4985004;28;20026;-61
2023/03/24 03:09:16;;;;;;;1.25;0.55;;;23.30;49.40;;;;;;4982908;28;20042;-61
2023/03/24 03:11:47;;;;;;;1.33;0.70;;;23.20;49.40;;;;;;4981761;28;20077;-61
2023/03/24 03:14:31;;;;;;;1.30;0.80;;;23.30;49.40;;;;;;4984998;28;20541;-61
2023/03/24 03:17:03;;;;;;;1.02;0.70;;;23.30;49.40;;;;;;4986704;28;20030;-62
2023/03/24 03:19:40;;;;;;;1.15;0.70;;;23.30;49.40;;;;;;4986641;28;20030;-61
2023/03/24 03:22:14;;;;;;;1.25;0.80;;;23.30;49.40;;;;;;4983087;28;20038;-63
2023/03/24 03:24:42;;;;;;;0.85;0.63;;;23.20;49.40;;;;;;4982176;28;20027;-62
2023/03/24 03:27:17;;;;;;;0.85;0.70;;;23.30;49.40;;;;;;4982897;28;20462;-62
2023/03/24 03:29:59;;;;;;;1.38;0.85;;;23.30;49.90;;;;;;4984654;28;20375;-62
2023/03/24 03:32:29;;;;;;;0.80;0.68;;;23.30;49.40;;;;;;4985056;28;20099;-62
2023/03/24 03:35:00;;;;;;;0.63;0.60;;;23.20;49.40;;;;;;4982149;28;20023;-62
2023/03/24 03:37:44;;;;;;;0.98;0.75;;;23.20;49.40;;;;;;4985836;28;20070;-62
2023/03/24 03:40:16;;;;;;;1.60;0.80;;;23.20;49.40;;;;;;4983316;28;20023;-61
2023/03/24 03:42:47;;;;;;;1.13;0.70;;;23.20;49.40;;;;;;4981937;28;20157;-61
2023/03/24 03:45:13;;;;;;;0.90;0.70;;;23.20;49.40;;;;;;4985538;28;20042;-61
2023/03/24 03:47:39;;;;;;;0.73;0.70;;;23.20;49.40;;;;;;4983723;28;20044;-62
2023/03/24 03:50:07;;;;;;;0.70;0.63;;;23.20;49.40;;;;;;4981067;28;20478;-62
2023/03/24 03:52:34;;;;;;;0.70;0.60;;;23.20;49.40;;;;;;4982435;28;20106;-62
2023/03/24 03:55:01;;;;;;;1.10;0.80;;;23.20;49.40;;;;;;4984411;28;20505;-61
2023/03/24 03:57:27;;;;;;;0.82;0.63;;;23.20;49.40;;;;;;4985285;28;20056;-61
2023/03/24 03:59:52;;;;;;;1.00;0.80;;;23.20;49.40;;;;;;4985836;28;20464;-61
2023/03/24 04:02:41;;;;;;;1.10;0.80;;;23.20;49.40;;;;;;4978497;28;20039;-61
2023/03/24 04:05:18;;;;;;;1.20;0.70;;;23.20;49.40;;;;;;4983001;28;20395;-62
2023/03/24 04:07:56;;;;;;;1.40;0.80;;;23.20;49.40;;;;;;4985393;28;20474;-62
2023/03/24 04:11:03;;;;;;;0.90;0.70;;;23.20;49.40;;;;;;4983158;28;20043;-62
2023/03/24 04:14:01;;;;;;;1.25;0.80;;;23.20;49.40;;;;;;4983327;28;20332;-62
2023/03/24 04:16:53;;;;;;;1.35;0.80;;;23.20;49.50;;;;;;4980607;28;20479;-62
2023/03/24 04:19:29;;;;;;;0.82;0.65;;;23.20;49.40;;;;;;4984195;28;20027;-62
2023/03/24 04:22:11;;;;;;;1.25;0.70;;;23.20;49.50;;;;;;4983816;28;20042;-62
2023/03/24 04:24:53;;;;;;;1.50;0.80;;;23.20;49.50;;;;;;4983455;28;20033;-62
2023/03/24 04:27:37;;;;;;;0.70;0.57;;;23.10;49.40;;;;;;4979024;28;20038;-62
2023/03/24 04:30:24;;;;;;;1.00;0.60;;;23.20;49.50;;;;;;4982708;28;20033;-62
2023/03/24 04:32:57;;;;;;;1.20;0.80;;;23.10;49.40;;;;;;4983775;28;20034;-62
2023/03/24 04:35:30;;;;;;;1.80;0.80;;;23.10;49.50;;;;;;4979348;28;20390;-62
2023/03/24 04:38:08;;;;;;;1.13;0.80;;;23.10;49.50;;;;;;4981166;28;20022;-62
2023/03/24 04:40:35;;;;;;;1.00;0.75;;;23.10;49.40;;;;;;4979602;28;20113;-62
2023/03/24 04:43:04;;;;;;;1.20;0.70;;;23.10;50.00;;;;;;4982374;28;20030;-62
2023/03/24 04:45:32;;;;;;;0.73;0.60;;;23.10;49.50;;;;;;4983043;28;20077;-62
2023/03/24 04:48:00;;;;;;;1.23;0.70;;;23.10;49.50;;;;;;4984064;28;20121;-62
2023/03/24 04:50:36;;;;;;;0.73;0.70;;;23.10;49.50;;;;;;4982749;28;20035;-62
2023/03/24 04:53:04;;;;;;;1.02;0.60;;;23.10;49.50;;;;;;4982048;28;20034;-62
2023/03/24 04:55:48;;;;;;;1.30;0.80;;;23.10;49.50;;;;;;4982538;28;20513;-62
2023/03/24 04:58:14;;;;;;;0.75;0.70;;;23.10;49.50;;;;;;4982730;28;20128;-62
2023/03/24 05:00:42;;;;;;;0.98;0.70;;;23.10;49.50;;;;;;4980994;28;20057;-62
2023/03/24 05:03:12;;;;;;;1.15;0.73;;;23.10;49.50;;;;;;4982608;28;20112;-62
2023/03/24 05:05:39;;;;;;;1.00;0.60;;;23.10;49.60;;;;;;4982499;28;20054;-62
2023/03/24 05:08:05;;;;;;;1.35;0.80;;;23.10;49.60;;;;;;4981277;28;20042;-62
2023/03/24 05:10:31;;;;;;;0.93;0.70;;;23.10;49.60;;;;;;4982817;28;20030;-62
2023/03/24 05:12:56;;;;;;;1.15;0.85;;;23.00;49.60;;;;;;4982333;28;20031;-62
2023/03/24 05:15:22;;;;;;;1.33;0.80;;;23.10;49.60;;;;;;4982227;28;20410;-61
2023/03/24 05:17:48;;;;;;;0.90;0.68;;;23.10;49.60;;;;;;4981453;28;20117;-62
2023/03/24 05:20:14;;;;;;;0.82;0.73;;;23.10;49.60;;;;;;4980611;28;20035;-62
2023/03/24 05:22:40;;;;;;;0.70;0.60;;;23.00;49.60;;;;;;4982888;28;20019;-62
2023/03/24 05:25:06;;;;;;;1.27;0.85;;;23.00;49.50;;;;;;4979289;28;20024;-62
2023/03/24 05:27:32;;;;;;;1.73;1.00;;;23.10;49.60;;;;;;4980574;28;20411;-62
2023/03/24 05:29:57;;;;;;;1.38;0.90;;;23.00;49.50;;;;;;4982574;28;20114;-61
2023/03/24 05:32:23;;;;;;;1.00;0.70;;;23.00;49.60;;;;;;4980447;28;20038;-62
2023/03/24 05:34:49;;;;;;;1.60;0.90;;;23.00;49.70;;;;;;4981996;28;20038;-62
2023/03/24 05:37:16;;;;;;;1.23;0.80;;;23.00;49.70;;;;;;4985835;28;20023;-62
2023/03/24 05:39:42;;;;;;;0.77;0.60;;;23.00;49.70;;;;;;4985895;28;20434;-62
2023/03/24 05:42:08;;;;;;;0.77;0.63;;;23.00;49.70;;;;;;4984124;28;20027;-62
2023/03/24 05:44:34;;;;;;;1.15;0.80;;;23.00;49.70;;;;;;4986002;28;20022;-62
2023/03/24 05:47:00;;;;;;;1.55;0.80;;;23.00;49.80;;;;;;4986669;28;20022;-62
2023/03/24 05:49:26;;;;;;;1.40;0.80;;;23.00;49.80;;;;;;4986196;28;20027;-62
2023/03/24 05:51:51;;;;;;;1.08;0.70;;;23.00;49.90;;;;;;4984506;28;20038;-62
2023/03/24 05:54:17;;;;;;;0.80;0.70;;;23.00;49.80;;;;;;4988105;28;20135;-63
2023/03/24 05:56:42;;;;;;;1.30;0.88;;;23.00;49.80;;;;;;4986706;28;20038;-62
2023/03/24 05:59:10;;;;;;;0.85;0.70;;;23.00;49.80;;;;;;4985234;28;20034;-62
2023/03/24 06:01:35;;;;;;;1.13;0.80;;;23.00;50.00;;;;;;4985126;28;20030;-62
2023/03/24 06:04:01;;;;;;;1.10;0.70;;;23.00;49.80;;;;;;4982359;28;20042;-62
2023/03/24 06:06:27;;;;;;;1.17;0.70;;;23.00;49.80;;;;;;4984818;28;20034;-63
2023/03/24 06:08:57;;;;;;;1.08;0.60;;;23.00;49.80;;;;;;4982724;28;20398;-62
2023/03/24 06:11:23;;;;;;;1.00;0.80;;;23.00;49.90;;;;;;4985495;28;20405;-62
2023/03/24 06:13:48;;;;;;;0.93;0.80;;;23.00;49.90;;;;;;4984121;28;20026;-62
2023/03/24 06:16:17;;;;;;;1.33;0.75;;;23.00;49.90;;;;;;4984335;28;20069;-62
2023/03/24 06:18:51;;;;;;;1.73;0.93;;;23.00;49.90;;;;;;4983264;28;20398;-63
2023/03/24 06:21:17;;;;;;;1.65;1.00;;;23.00;49.90;;;;;;4982829;28;20114;-62
2023/03/24 06:23:43;;;;;;;1.33;0.80;;;23.00;50.00;;;;;;4986350;28;20653;-62
2023/03/24 06:26:11;;;;;;;1.65;0.95;;;22.90;49.90;;;;;;4966349;28;20034;-62
2023/03/24 06:28:38;;;;;;;1.52;0.80;;;23.00;50.00;;;;;;4986241;28;20427;-62
2023/03/24 06:31:13;;;;;;;1.17;0.80;;;23.00;50.00;;;;;;4988275;28;20121;-62
2023/03/24 06:33:41;;;;;;;1.75;0.90;;;22.90;50.00;;;;;;4985294;28;20033;-62
2023/03/24 06:36:07;;;;;;;1.65;1.00;;;23.00;50.00;;;;;;4984407;28;20467;-62
2023/03/24 06:38:33;;;;;;;1.38;0.82;;;23.00;50.00;;;;;;4985249;28;20057;-62
2023/03/24 06:41:00;;;;;;;1.35;0.80;;;23.00;50.00;;;;;;4987500;28;20604;-62
2023/03/24 06:43:25;;;;;;;1.25;0.85;;;23.00;50.00;;;;;;4984845;28;20034;-62
2023/03/24 06:45:51;;;;;;;1.65;1.00;;;22.90;49.90;;;;;;4983328;28;20504;-62
2023/03/24 06:48:17;;;;;;;1.35;0.90;;;22.90;49.90;;;;;;4997936;28;20104;-62
2023/03/24 06:50:42;;;;;;;1.30;0.88;;;23.00;50.00;;;;;;4983868;28;20403;-62
2023/03/24 06:53:08;;;;;;;1.10;0.90;;;22.90;50.00;;;;;;4982811;28;20027;-63
2023/03/24 06:55:34;;;;;;;1.90;1.00;;;22.90;49.90;;;;;;4983982;28;20034;-62
2023/03/24 06:58:00;;;;;;;3.40;1.10;;;22.90;50.00;;;;;;4980815;28;20678;-62
2023/03/24 07:00:28;;;;;;;1.25;0.80;;;22.90;50.00;;;;;;4981402;28;20150;-62
2023/03/24 07:02:54;;;;;;;1.42;0.90;;;22.90;50.00;;;;;;4984205;28;20484;-62
2023/03/24 07:05:21;;;;;;;2.45;1.10;;;22.90;50.00;;;;;;4982793;28;20124;-62
2023/03/24 07:07:47;;;;;;;1.80;0.98;;;22.90;50.00;;;;;;4983367;28;20057;-63
2023/03/24 07:10:13;;;;;;;1.80;0.98;;;22.90;50.50;;;;;;4985046;28;20081;-62
2023/03/24 07:12:39;;;;;;;2.53;1.30;;;22.90;50.00;;;;;;4983036;28;20026;-63
2023/03/24 07:15:06;;;;;;;1.98;1.20;;;22.90;50.00;;;;;;4986123;28;20038;-62
2023/03/24 07:17:32;;;;;;;2.75;1.20;;;22.90;50.00;;;;;;4984551;28;20023;-62
2023/03/24 07:19:58;;;;;;;1.80;1.08;;;22.90;50.00;;;;;;4984121;28;20023;-62
2023/03/24 07:22:23;;;;;;;2.40;1.15;;;22.90;50.00;;;;;;4984335;28;20172;-63
2023/03/24 07:24:49;;;;;;;3.08;1.40;;;22.90;50.00;;;;;;4983639;28;20485;-63
2023/03/24 07:27:15;;;;;;;2.88;1.20;;;22.90;50.00;;;;;;4983043;28;20532;-63
2023/03/24 07:29:40;;;;;;;2.17;1.10;;;22.90;50.00;;;;;;4986304;28;20034;-63
2023/03/24 07:32:06;;;;;;;2.60;1.30;;;22.90;50.00;;;;;;4984000;28;20132;-62
2023/03/24 07:34:33;;;;;;;2.85;1.20;;;22.90;50.00;;;;;;4987467;28;20027;-64
2023/03/24 07:36:59;;;;;;;3.00;1.30;;;22.90;50.50;;;;;;4987431;28;20113;-64
2023/03/24 07:39:25;;;;;;;3.67;1.20;;;22.90;50.00;;;;;;4984975;28;20101;-63
2023/03/24 07:41:50;;;;;;;2.97;1.30;;;22.90;50.00;;;;;;4983557;28;20027;-63
2023/03/24 07:44:16;;;;;;;2.72;1.30;;;22.90;50.00;;;;;;4984578;28;20068;-62
2023/03/24 07:46:42;;;;;;;2.15;1.10;;;22.90;50.00;;;;;;4982475;28;20130;-63
2023/03/24 07:49:07;;;;;;;2.30;1.05;;;22.90;50.00;;;;;;4982994;28;20124;-64
2023/03/24 07:51:33;;;;;;;2.63;1.17;;;22.90;50.00;;;;;;4984930;28;20034;-64
2023/03/24 07:53:58;;;;;;;2.20;1.10;;;22.90;50.00;;;;;;4988115;28;20051;-63
2023/03/24 07:56:24;;;;;;;2.20;1.20;;;22.90;50.10;;;;;;4984908;28;20492;-64
2023/03/24 07:58:50;;;;;;;3.55;1.40;;;22.90;50.00;;;;;;4983807;28;20107;-64
2023/03/24 08:01:16;;;;;;;2.10;1.35;;;22.90;50.10;;;;;;4985491;28;20367;-63
2023/03/24 08:03:42;;;;;;;3.03;1.23;;;22.90;50.00;;;;;;4982490;28;20498;-64
2023/03/24 08:06:08;;;;;;;2.53;1.20;;;22.90;50.00;;;;;;4980826;28;20066;-64
2023/03/24 08:08:35;;;;;;;2.58;1.25;;;22.90;50.00;;;;;;4983627;28;20054;-64
2023/03/24 08:11:02;;;;;;;2.78;1.33;;;22.80;50.00;;;;;;4981663;28;20034;-64
2023/03/24 08:13:28;;;;;;;2.22;1.20;;;22.80;50.00;;;;;;4985998;28;20109;-64
2023/03/24 08:15:54;;;;;;;2.20;1.30;;;22.90;50.10;;;;;;4983491;28;20469;-64
2023/03/24 08:18:21;;;;;;;2.47;1.20;;;22.80;50.00;;;;;;4981810;28;20039;-64
2023/03/24 08:20:48;;;;;;;2.33;1.33;;;22.80;50.00;;;;;;4983419;28;20031;-64
2023/03/24 08:23:16;;;;;;;3.05;1.30;;;22.80;50.00;;;;;;4982396;28;20565;-64
2023/03/24 08:25:42;;;;;;;2.55;1.10;;;22.80;50.00;;;;;;4983105;28;20034;-64
2023/03/24 08:28:07;;;;;;;2.25;1.15;;;22.80;50.00;;;;;;4982417;28;20479;-64
2023/03/24 08:30:33;;;;;;;3.47;1.10;;;22.80;50.00;;;;;;4982729;28;20118;-64
2023/03/24 08:33:01;;;;;;;2.63;1.20;;;22.80;50.00;;;;;;4977757;28;20764;-64
2023/03/24 08:35:33;;;;;;;2.55;1.27;;;22.80;50.00;;;;;;4979623;28;20529;-64
2023/03/24 08:38:00;;;;;;;1.92;1.10;;;22.80;50.00;;;;;;4979347;28;20110;-64
2023/03/24 08:40:27;;;;;;;3.38;1.60;;;22.80;50.00;;;;;;4983238;28;20454;-64
2023/03/24 08:42:57;;;;;;;3.38;1.50;;;22.80;50.00;;;;;;4982262;28;20030;-64
2023/03/24 08:45:26;;;;;;;3.08;1.20;;;22.80;50.00;;;;;;4980699;28;20098;-64
2023/03/24 08:47:53;;;;;;;2.47;1.40;;;22.80;50.00;;;;;;4982762;28;20402;-64
2023/03/24 08:50:21;;;;;;;2.15;1.20;;;22.80;50.00;;;;;;4981729;28;20454;-64
2023/03/24 08:52:47;;;;;;;2.22;1.30;;;22.80;50.00;;;;;;4984000;28;20544;-62
2023/03/24 08:55:15;;;;;;;1.95;1.13;;;22.80;50.60;;;;;;4982836;28;20030;-62
2023/03/24 08:57:41;;;;;;;2.55;1.30;;;22.80;50.00;;;;;;4980249;28;20597;-62
2023/03/24 09:00:14;;;;;;;2.60;1.20;;;22.80;50.00;;;;;;4984574;28;20034;-62
2023/03/24 09:02:45;;;;;;;2.28;1.13;;;22.80;50.00;;;;;;4985442;28;20015;-62
2023/03/24 09:05:12;;;;;;;2.40;1.20;;;22.80;50.10;;;;;;4982296;28;20037;-62
2023/03/24 09:07:38;;;;;;;2.75;1.40;;;22.80;50.00;;;;;;4981596;28;20692;-62
2023/03/24 09:10:08;;;;;;;2.53;1.40;;;22.80;50.10;;;;;;4979935;28;20026;-62
2023/03/24 09:12:35;;;;;;;2.30;1.20;;;22.80;50.00;;;;;;4981404;28;20045;-61
2023/03/24 09:15:01;;;;;;;2.60;1.27;;;22.80;50.00;;;;;;4981268;28;20023;-62
2023/03/24 09:17:26;;;;;;;4.88;1.33;;;22.80;50.00;;;;;;4981373;28;20045;-62
2023/03/24 09:19:52;;;;;;;1.98;1.10;;;22.80;50.00;;;;;;4982268;28;20130;-62
2023/03/24 09:22:18;;;;;;;2.80;1.45;;;22.80;50.00;;;;;;4980355;28;20088;-62
2023/03/24 09:24:43;;;;;;;2.75;1.23;;;22.80;50.10;;;;;;4978955;28;20512;-62
2023/03/24 09:27:09;;;;;;;2.20;1.20;;;22.80;50.00;;;;;;4982508;28;20034;-62
2023/03/24 09:29:35;;;;;;;2.58;1.20;;;22.80;50.00;;;;;;4982674;28;20030;-62
2023/03/24 09:32:01;;;;;;;2.65;1.33;;;22.80;50.00;;;;;;4984602;28;20042;-62
2023/03/24 09:34:26;;;;;;;2.20;1.30;;;22.80;50.00;;;;;;4982695;28;20364;-62
2023/03/24 09:36:52;;;;;;;2.10;1.10;;;22.80;50.00;;;;;;4983002;28;20026;-62
2023/03/24 09:39:18;;;;;;;3.50;1.30;;;22.80;50.10;;;;;;4980800;28;20391;-62
2023/03/24 09:41:49;;;;;;;2.40;1.23;;;22.70;50.00;;;;;;4982282;28;20109;-62
2023/03/24 09:44:30;;;;;;;2.15;1.20;;;22.70;50.00;;;;;;4983512;28;20137;-62
2023/03/24 09:47:03;;;;;;;1.90;1.10;;;22.70;50.00;;;;;;4983787;28;20422;-62
2023/03/24 09:49:33;;;;;;;2.67;1.17;;;22.70;50.00;;;;;;4981891;28;20034;-62
2023/03/24 09:52:09;;;;;;;2.22;1.20;;;22.80;50.10;;;;;;4981245;28;20441;-62
2023/03/24 09:54:57;;;;;;;2.33;1.30;;;22.70;50.00;;;;;;4983396;28;20478;-62
2023/03/24 09:57:37;;;;;;;2.37;1.30;;;22.70;50.00;;;;;;4979161;28;20109;-62
2023/03/24 10:00:32;;;;;;;2.78;1.38;;;22.70;50.00;;;;;;4982777;28;20262;-62
2023/03/24 10:03:20;;;;;;;2.13;1.10;;;22.70;50.00;;;;;;4981255;28;20419;-62
2023/03/24 10:06:08;;;;;;;2.42;1.40;;;22.70;50.00;;;;;;4978246;28;20398;-62
2023/03/24 10:08:35;;;;;;;1.92;1.20;;;22.70;50.00;;;;;;4980115;28;20026;-62
2023/03/24 10:11:06;;;;;;;2.17;1.20;;;22.70;50.00;;;;;;4980782;28;20061;-62
2023/03/24 10:13:48;;;;;;;3.03;1.50;;;22.70;50.00;;;;;;4982649;28;20411;-63
2023/03/24 10:16:26;;;;;;;2.33;1.30;;;22.70;50.00;;;;;;4981028;28;20033;-62
2023/03/24 10:19:01;;;;;;;2.08;1.20;;;22.70;50.00;;;;;;4981011;28;20216;-62
2023/03/24 10:21:34;;;;;;;2.55;1.13;;;22.70;50.00;;;;;;4983138;28;20483;-62
2023/03/24 10:24:38;;;;;;;2.10;1.20;;;22.70;50.00;;;;;;4985000;28;20460;-63
2023/03/24 10:27:23;;;;;;;1.98;1.17;;;22.70;50.00;;;;;;4984902;28;20038;-62
2023/03/24 10:29:53;;;;;;;2.15;1.10;;;22.70;49.90;;;;;;4982360;28;20483;-63
2023/03/24 10:32:24;;;;;;;2.22;1.33;;;22.70;49.90;;;;;;4987124;28;20027;-62
2023/03/24 10:34:56;;;;;;;2.10;1.27;;;22.70;49.90;;;;;;4985154;28;20065;-62
2023/03/24 10:37:21;;;;;;;2.40;1.25;;;22.70;49.90;;;;;;4988335;28;20223;-62
2023/03/24 10:39:48;;;;;;;2.00;1.20;;;22.70;49.90;;;;;;4985654;28;20497;-64
2023/03/24 10:42:17;;;;;;;2.15;1.00;;;22.70;49.90;;;;;;4985005;28;20073;-64
2023/03/24 10:44:45;;;;;;;2.00;1.25;;;22.70;49.90;;;;;;4984712;28;20037;-64
2023/03/24 10:47:12;;;;;;;1.57;1.00;;;22.70;49.90;;;;;;4985533;28;20373;-64
2023/03/24 10:49:55;;;;;;;2.03;1.25;;;22.70;49.90;;;;;;4984982;28;20049;-64
2023/03/24 10:52:23;;;;;;;1.98;1.00;;;22.70;49.90;;;;;;4982926;28;20030;-64
2023/03/24 10:55:03;;;;;;;2.28;1.20;;;22.70;49.90;;;;;;4985660;28;20019;-63
2023/03/24 10:57:29;;;;;;;2.88;1.40;;;22.70;49.90;;;;;;4983750;28;20635;-64
2023/03/24 11:00:17;;;;;;;2.20;1.20;;;22.70;50.00;;;;;;4987376;28;20104;-64
2023/03/24 11:02:43;;;;;;;2.75;1.10;;;22.70;50.00;;;;;;4983037;28;20065;-64
2023/03/24 11:05:12;;;;;;;2.20;1.20;;;22.70;50.50;;;;;;4985426;28;20031;-64
2023/03/24 11:07:41;;;;;;;2.40;1.45;;;22.70;50.00;;;;;;4982540;28;20023;-64
2023/03/24 11:10:09;;;;;;;2.05;1.17;;;22.70;49.90;;;;;;4981979;28;20031;-64
2023/03/24 11:12:40;;;;;;;2.03;1.10;;;22.70;49.90;;;;;;4984458;28;20570;-64
2023/03/24 11:15:29;;;;;;;2.13;1.20;;;22.70;50.00;;;;;;4981406;28;20064;-64
2023/03/24 11:17:56;;;;;;;2.20;1.20;;;22.70;49.90;;;;;;4987545;28;20474;-64
2023/03/24 11:20:36;;;;;;;2.42;1.30;;;22.70;49.80;;;;;;4981593;28;20034;-63
2023/03/24 11:23:37;;;;;;;1.95;1.23;;;22.70;50.20;;;;;;4985884;28;20391;-63
2023/03/24 11:26:06;;;;;;;1.90;1.10;;;22.70;49.90;;;;;;4981382;28;20074;-63
2023/03/24 11:28:45;;;;;;;1.88;1.08;;;22.70;49.90;;;;;;4986027;28;20034;-63
2023/03/24 11:31:17;;;;;;;2.22;1.23;;;22.70;49.90;;;;;;4986517;28;20096;-63
2023/03/24 11:34:07;;;;;;;1.65;0.90;;;22.70;49.80;;;;;;4982096;28;20035;-63
2023/03/24 11:36:36;;;;;;;1.70;1.10;;;22.70;49.80;;;;;;4990422;28;20038;-63
2023/03/24 11:39:11;;;;;;;2.53;1.27;;;22.70;49.80;;;;;;4983211;28;20031;-63
2023/03/24 11:41:40;;;;;;;2.47;1.10;;;22.70;50.40;;;;;;4983904;28;20050;-63
2023/03/24 11:44:24;;;;;;;1.77;1.00;;;22.70;49.80;;;;;;4985679;28;20541;-64
2023/03/24 11:47:05;;;;;;;2.85;1.25;;;22.70;49.90;;;;;;4984760;28;20037;-63
2023/03/24 11:49:35;;;;;;;1.85;1.10;;;22.70;49.80;;;;;;4985939;28;20161;-63
2023/03/24 11:52:03;;;;;;;2.10;1.20;;;22.70;49.80;;;;;;4983684;28;20061;-63
2023/03/24 11:54:35;;;;;;;1.88;1.15;;;22.70;49.80;;;;;;4984253;28;20089;-63
2023/03/24 11:57:09;;;;;;;1.95;1.10;;;22.70;49.80;;;;;;4984060;28;20029;-63
2023/03/24 11:59:49;;;;;;;2.10;1.17;;;22.70;49.80;;;;;;4984090;28;20070;-64
2023/03/24 12:02:40;;;;;;;2.90;1.40;;;22.70;49.90;;;;;;4982545;28;20397;-64
2023/03/24 12:05:16;;;;;;;2.22;1.10;;;22.70;49.80;;;;;;4982366;28;20593;-64
2023/03/24 12:08:03;;;;;;;2.17;1.10;;;22.70;49.80;;;;;;4983560;28;20109;-64
2023/03/24 12:10:47;;;;;;;2.10;1.00;;;22.70;49.80;;;;;;4984167;28;20030;-64
2023/03/24 12:13:17;;;;;;;1.30;0.90;;;22.70;49.80;;;;;;4985264;28;20434;-63
2023/03/24 12:16:20;;;;;;;1.80;1.10;;;22.70;49.80;;;;;;4984342;28;20042;-63
2023/03/24 12:19:27;;;;;;;1.65;0.98;;;22.70;49.80;;;;;;4982608;28;20030;-63
2023/03/24 12:22:30;;;;;;;2.00;1.13;;;22.70;49.70;;;;;;4979197;28;20042;-63
2023/03/24 12:25:20;;;;;;;2.15;1.10;;;22.70;49.70;;;;;;4987050;28;20027;-63
2023/03/24 12:27:58;;;;;;;1.98;1.10;;;22.70;49.70;;;;;;4980942;28;20050;-63
2023/03/24 12:30:49;;;;;;;1.58;1.00;;;22.70;49.70;;;;;;4980900;28;20082;-63
2023/03/24 12:33:51;;;;;;;1.98;1.10;;;22.70;49.70;;;;;;4984002;28;20420;-63
2023/03/24 12:36:30;;;;;;;1.73;1.00;;;22.70;49.70;;;;;;4981069;28;20054;-64
2023/03/24 12:39:17;;;;;;;0.98;0.80;;;22.70;49.70;;;;;;4982624;28;20027;-63
2023/03/24 12:41:57;;;;;;;1.83;1.00;;;22.70;49.70;;;;;;4981403;28;20029;-63
2023/03/24 12:44:41;;;;;;;2.50;1.25;;;22.70;49.70;;;;;;4982501;28;20053;-63
2023/03/24 12:47:25;;;;;;;1.30;0.90;;;22.70;49.70;;;;;;4998231;28;20394;-63
2023/03/24 12:50:00;;;;;;;1.83;0.90;;;22.70;49.70;;;;;;4982506;28;20027;-63
2023/03/24 12:53:06;;;;;;;2.00;1.00;;;22.70;49.70;;;;;;4980339;28;20042;-63
2023/03/24 12:56:08;;;;;;;1.92;1.10;;;22.70;49.70;;;;;;4983149;28;20015;-64
2023/03/24 12:58:42;;;;;;;2.25;1.02;;;22.70;49.70;;;;;;4973980;28;20038;-64
2023/03/24 13:01:28;;;;;;;2.80;0.90;;;22.70;49.70;;;;;;4981288;28;20157;-62
2023/03/24 13:04:20;;;;;;;1.65;0.90;;;22.70;49.70;;;;;;4981927;28;20494;-64
2023/03/24 13:07:02;;;;;;;1.80;0.90;;;22.70;49.70;;;;;;4983317;28;20027;-62
2023/03/24 13:09:38;;;;;;;2.33;0.90;;;22.70;49.70;;;;;;4980582;28;20551;-63
2023/03/24 13:12:23;;;;;;;2.30;1.02;;;22.70;49.70;;;;;;4982408;28;20490;-64
2023/03/24 13:15:08;;;;;;;1.23;0.90;;;22.70;50.30;;;;;;4979195;28;20030;-63